createdAt,value
2023-02-18T12:01:57.363Z,5.60
2023-02-18T12:03:41.505Z,7.20
2023-02-18T12:05:24.662Z,6.20
2023-02-18T12:07:05.770Z,5.80
2023-02-18T12:08:46.248Z,7.00
2023-02-18T12:10:32.855Z,8.00
2023-02-18T12:12:12.133Z,8.60
2023-02-18T12:13:51.913Z,6.60
2023-02-18T12:15:38.440Z,4.60
2023-02-18T12:17:37.887Z,1.20
2023-02-18T12:19:19.049Z,6.80
2023-02-18T12:21:20.307Z,7.80
2023-02-18T12:23:00.935Z,4.80
2023-02-18T12:25:06.495Z,8.40
2023-02-18T12:26:49.394Z,17.60
2023-02-18T12:28:44.296Z,8.20
2023-02-18T12:30:45.266Z,20.00
2023-02-18T12:32:44.719Z,19.20
2023-02-18T12:34:19.440Z,24.40
2023-02-18T12:36:18.848Z,28.80
2023-02-18T12:37:57.489Z,32.60
2023-02-18T12:39:30.138Z,33.80
2023-02-18T12:41:23.532Z,32.80
2023-02-18T12:43:00.956Z,37.60
2023-02-18T12:44:45.343Z,35.80
2023-02-18T12:46:36.065Z,37.20
2023-02-18T12:48:10.966Z,33.60
2023-02-18T12:50:01.096Z,39.80
2023-02-18T12:51:44.749Z,44.80
2023-02-18T12:53:41.093Z,48.00
2023-02-18T12:55:50.220Z,51.60
2023-02-18T12:57:24.692Z,49.60
2023-02-18T12:59:27.473Z,57.00
2023-02-18T13:01:23.523Z,55.60
2023-02-18T13:03:05.201Z,55.20
2023-02-18T13:04:45.655Z,53.80
2023-02-18T13:06:45.482Z,50.60
2023-02-18T13:08:27.329Z,59.80
2023-02-18T13:10:23.082Z,53.00
2023-02-18T13:12:18.142Z,58.40
2023-02-18T13:13:58.603Z,60.00
2023-02-18T13:16:11.719Z,58.00
2023-02-18T13:17:43.778Z,60.00
2023-02-18T13:19:18.766Z,61.40
2023-02-18T13:20:55.740Z,58.20
2023-02-18T13:22:28.219Z,54.20
2023-02-18T13:24:05.767Z,62.20
2023-02-18T13:25:38.174Z,62.50
2023-02-18T13:27:35.461Z,227.33
2023-02-18T13:29:31.340Z,168.50
2023-02-18T13:31:27.921Z,162.75
2023-02-18T13:33:20.114Z,170.50
2023-02-18T13:35:15.539Z,170.75
2023-02-18T13:37:16.958Z,143.50
2023-02-18T13:38:51.384Z,149.50
2023-02-18T13:40:25.629Z,140.00
2023-02-18T13:42:19.088Z,136.50
2023-02-18T13:43:50.939Z,154.50
2023-02-18T13:45:32.866Z,147.00
2023-02-18T13:47:04.754Z,150.25
2023-02-18T13:48:52.365Z,156.25
2023-02-18T13:50:27.256Z,138.25
2023-02-18T13:51:59.686Z,151.50
2023-02-18T13:53:38.238Z,147.25
2023-02-18T13:55:20.292Z,135.75
2023-02-18T13:57:02.876Z,151.00
2023-02-18T13:58:53.403Z,143.50
2023-02-18T14:00:26.300Z,168.25
2023-02-18T14:02:19.912Z,153.50
2023-02-18T14:03:54.525Z,148.25
2023-02-18T14:05:38.091Z,141.50
2023-02-18T14:07:36.045Z,166.00
2023-02-18T14:09:13.522Z,140.75
2023-02-18T14:11:11.288Z,151.00
2023-02-18T14:12:58.898Z,139.75
2023-02-18T14:14:34.991Z,138.50
2023-02-18T14:16:06.980Z,136.00
2023-02-18T14:17:41.202Z,146.00
2023-02-18T14:19:28.097Z,122.50
2023-02-18T14:21:19.975Z,122.50
2023-02-18T14:22:52.677Z,129.25
2023-02-18T14:24:43.517Z,127.75
2023-02-18T14:26:15.306Z,112.25
2023-02-18T14:27:47.622Z,116.50
2023-02-18T14:29:30.788Z,121.00
2023-02-18T14:31:12.248Z,111.20
2023-02-18T14:32:44.785Z,121.75
2023-02-18T14:34:34.651Z,116.25
2023-02-18T14:36:18.328Z,127.00
2023-02-18T14:37:55.993Z,131.50
2023-02-18T14:39:36.099Z,122.25
2023-02-18T14:41:35.398Z,128.50
2023-02-18T14:43:33.599Z,135.25
2023-02-18T14:45:14.209Z,126.50
2023-02-18T14:47:10.729Z,118.75
2023-02-18T14:48:57.874Z,125.50
2023-02-18T14:50:34.581Z,115.50
2023-02-18T14:52:12.165Z,136.25
2023-02-18T14:53:44.556Z,126.00
2023-02-18T14:55:25.686Z,118.75
2023-02-18T14:57:03.621Z,114.75
2023-02-18T14:58:38.653Z,124.50
2023-02-18T15:00:24.332Z,124.00
2023-02-18T15:01:56.666Z,127.00
2023-02-18T15:03:28.683Z,106.40
2023-02-18T15:05:20.768Z,116.00
2023-02-18T15:07:03.676Z,108.60
2023-02-18T15:08:39.550Z,108.20
2023-02-18T15:10:15.362Z,103.40
2023-02-18T15:11:58.816Z,109.00
2023-02-18T15:13:32.402Z,95.00
2023-02-18T15:15:04.300Z,102.25
2023-02-18T15:16:36.412Z,89.25
2023-02-18T15:18:22.414Z,90.00
2023-02-18T15:19:56.331Z,94.25
2023-02-18T15:21:39.510Z,92.50
2023-02-18T15:23:14.115Z,80.25
2023-02-18T15:24:45.993Z,90.00
2023-02-18T15:26:17.875Z,80.25
2023-02-18T15:27:51.842Z,77.50
2023-02-18T15:29:25.695Z,81.75
2023-02-18T15:31:01.596Z,78.00
2023-02-18T15:32:33.689Z,76.25
2023-02-18T15:34:24.283Z,82.75
2023-02-18T15:36:06.132Z,81.25
2023-02-18T15:37:38.096Z,83.75
2023-02-18T15:39:09.921Z,91.25
2023-02-18T15:40:41.782Z,101.00
2023-02-18T15:42:29.543Z,90.60
2023-02-18T15:44:03.321Z,106.60
2023-02-18T15:45:39.834Z,125.80
2023-02-18T15:47:11.790Z,121.25
2023-02-18T15:48:47.614Z,124.25
2023-02-18T15:50:39.783Z,114.50
2023-02-18T15:52:11.596Z,146.75
2023-02-18T15:53:43.626Z,143.75
2023-02-18T15:55:43.379Z,147.00
2023-02-18T15:57:15.269Z,145.00
2023-02-18T15:58:47.209Z,145.50
2023-02-18T16:00:30.802Z,141.00
2023-02-18T16:02:08.627Z,139.00
2023-02-18T16:03:40.695Z,149.25
2023-02-18T16:05:13.204Z,142.75
2023-02-18T16:06:47.693Z,141.50
2023-02-18T16:08:28.659Z,157.00
2023-02-18T16:10:21.884Z,175.50
2023-02-18T16:11:59.685Z,147.75
2023-02-18T16:13:31.660Z,148.75
2023-02-18T16:15:03.665Z,164.00
2023-02-18T16:16:37.230Z,163.50
2023-02-18T16:18:40.689Z,160.50
2023-02-18T16:20:21.885Z,156.00
2023-02-18T16:21:53.768Z,172.75
2023-02-18T16:23:36.202Z,174.00
2023-02-18T16:25:14.059Z,175.25
2023-02-18T16:26:46.111Z,158.25
2023-02-18T16:28:30.662Z,167.00
2023-02-18T16:30:21.555Z,160.25
2023-02-18T16:31:53.595Z,155.00
2023-02-18T16:33:25.559Z,154.75
2023-02-18T16:34:57.497Z,151.25
2023-02-18T16:36:29.414Z,154.00
2023-02-18T16:38:01.375Z,154.25
2023-02-18T16:39:34.253Z,144.50
2023-02-18T16:41:06.438Z,139.00
2023-02-18T16:42:38.442Z,141.50
2023-02-18T16:44:12.851Z,143.75
2023-02-18T16:45:55.748Z,150.75
2023-02-18T16:47:27.744Z,157.25
2023-02-18T16:48:59.600Z,145.75
2023-02-18T16:50:32.280Z,163.00
2023-02-18T16:52:07.965Z,150.50
2023-02-18T16:53:40.134Z,156.25
2023-02-18T16:55:19.954Z,157.50
2023-02-18T16:56:51.925Z,155.50
2023-02-18T16:58:24.011Z,152.25
2023-02-18T16:59:56.029Z,154.00
2023-02-18T17:01:38.363Z,171.25
2023-02-18T17:03:10.273Z,149.25
2023-02-18T17:04:42.276Z,158.50
2023-02-18T17:06:14.306Z,151.50
2023-02-18T17:07:46.176Z,145.75
2023-02-18T17:09:22.749Z,154.50
2023-02-18T17:10:56.987Z,155.75
2023-02-18T17:12:28.824Z,159.75
2023-02-18T17:14:00.728Z,140.75
2023-02-18T17:15:34.783Z,148.50
2023-02-18T17:17:11.457Z,374.00
2023-02-18T17:18:43.933Z,323.75
2023-02-18T17:20:16.025Z,319.50
2023-02-18T17:21:48.965Z,262.25
2023-02-18T17:23:23.477Z,223.00
2023-02-18T17:24:55.476Z,205.67
2023-02-18T17:26:28.524Z,200.50
2023-02-18T17:28:00.761Z,179.50
2023-02-18T17:29:32.731Z,189.75
2023-02-18T17:31:04.754Z,188.25
2023-02-18T17:32:36.902Z,174.25
2023-02-18T17:34:09.808Z,185.50
2023-02-18T17:35:41.780Z,176.50
2023-02-18T17:37:14.129Z,178.75
2023-02-18T17:38:46.096Z,169.00
2023-02-18T17:40:28.272Z,160.50
2023-02-18T17:42:00.102Z,156.50
2023-02-18T17:43:32.050Z,161.50
2023-02-18T17:45:12.959Z,148.50
2023-02-18T17:46:45.102Z,153.25
2023-02-18T17:48:17.060Z,141.25
2023-02-18T17:49:48.890Z,144.00
2023-02-18T17:51:27.240Z,150.50
2023-02-18T17:52:59.310Z,150.00
2023-02-18T17:54:31.298Z,152.50
2023-02-18T17:56:03.294Z,138.50
2023-02-18T17:57:35.178Z,145.75
2023-02-18T17:59:07.137Z,144.00
2023-02-18T18:00:41.013Z,149.75
2023-02-18T18:02:27.956Z,142.25
2023-02-18T18:03:59.856Z,140.75
2023-02-18T18:05:36.409Z,128.25
2023-02-18T18:07:08.748Z,131.00
2023-02-18T18:08:40.911Z,140.75
2023-02-18T18:10:13.234Z,124.00
2023-02-18T18:11:45.171Z,127.50
2023-02-18T18:13:25.042Z,127.75
2023-02-18T18:14:56.926Z,119.00
2023-02-18T18:16:29.023Z,131.25
2023-02-18T18:18:01.049Z,109.00
2023-02-18T18:19:33.963Z,121.00
2023-02-18T18:21:05.924Z,112.00
2023-02-18T18:22:37.844Z,110.40
2023-02-18T18:24:11.943Z,108.50
2023-02-18T18:25:45.473Z,124.50
2023-02-18T18:27:17.284Z,113.80
2023-02-18T18:28:49.356Z,112.80
2023-02-18T18:30:29.351Z,115.40
2023-02-18T18:32:02.845Z,115.20
2023-02-18T18:33:34.877Z,106.40
2023-02-18T18:35:26.821Z,117.25
2023-02-18T18:36:58.733Z,113.50
2023-02-18T18:38:30.597Z,117.00
2023-02-18T18:40:02.661Z,108.80
2023-02-18T18:41:34.993Z,127.00
2023-02-18T18:43:06.942Z,120.00
2023-02-18T18:44:38.825Z,107.75
2023-02-18T18:46:10.917Z,126.25
2023-02-18T18:47:42.938Z,112.00
2023-02-18T18:49:14.750Z,125.40
2023-02-18T18:50:47.313Z,116.80
2023-02-18T18:52:19.199Z,122.00
2023-02-18T18:53:51.167Z,108.40
2023-02-18T18:55:30.739Z,116.20
2023-02-18T18:57:02.725Z,106.20
2023-02-18T18:58:34.675Z,106.80
2023-02-18T19:00:07.314Z,111.40
2023-02-18T19:01:39.336Z,105.40
2023-02-18T19:03:11.891Z,111.40
2023-02-18T19:04:43.791Z,112.40
2023-02-18T19:06:16.391Z,124.00
2023-02-18T19:07:48.361Z,108.80
2023-02-18T19:09:20.336Z,117.00
2023-02-18T19:10:54.330Z,117.50
2023-02-18T19:12:26.233Z,122.50
2023-02-18T19:13:59.073Z,140.75
2023-02-18T19:15:31.011Z,139.50
2023-02-18T19:17:02.899Z,150.00
2023-02-18T19:18:35.482Z,146.25
2023-02-18T19:20:08.420Z,162.00
2023-02-18T19:21:42.179Z,153.00
2023-02-18T19:23:14.182Z,158.50
2023-02-18T19:24:46.172Z,149.50
2023-02-18T19:26:18.430Z,143.50
2023-02-18T19:27:50.582Z,135.25
2023-02-18T19:29:23.541Z,160.25
2023-02-18T19:30:55.714Z,157.00
2023-02-18T19:32:27.630Z,145.25
2023-02-18T19:33:59.513Z,155.00
2023-02-18T19:35:31.619Z,154.25
2023-02-18T19:37:03.538Z,140.50
2023-02-18T19:38:35.871Z,159.50
2023-02-18T19:40:08.809Z,152.25
2023-02-18T19:41:40.804Z,155.25
2023-02-18T19:43:12.900Z,155.00
2023-02-18T19:44:44.783Z,146.75
2023-02-18T19:46:17.969Z,154.00
2023-02-18T19:47:54.517Z,145.50
2023-02-18T19:49:26.783Z,152.75
2023-02-18T19:50:58.725Z,217.33
2023-02-18T19:52:30.659Z,161.50
2023-02-18T19:54:02.601Z,179.75
2023-02-18T19:55:34.513Z,164.50
2023-02-18T19:57:07.471Z,158.00
2023-02-18T19:58:42.089Z,168.25
2023-02-18T20:00:14.899Z,179.50
2023-02-18T20:01:46.759Z,176.50
2023-02-18T20:03:18.728Z,173.75
2023-02-18T20:04:50.603Z,173.00
2023-02-18T20:06:23.001Z,160.00
2023-02-18T20:07:55.011Z,179.25
2023-02-18T20:09:27.113Z,167.00
2023-02-18T20:10:59.022Z,174.25
2023-02-18T20:12:30.976Z,171.25
2023-02-18T20:14:02.900Z,166.50
2023-02-18T20:15:34.921Z,157.50
2023-02-18T20:17:06.994Z,188.25
2023-02-18T20:18:38.906Z,170.25
2023-02-18T20:20:10.889Z,173.00
2023-02-18T20:21:42.798Z,181.75
2023-02-18T20:23:14.619Z,164.00
2023-02-18T20:24:47.271Z,150.00
2023-02-18T20:26:19.085Z,139.50
2023-02-18T20:28:00.446Z,152.00
2023-02-18T20:29:36.602Z,129.50
2023-02-18T20:31:11.554Z,138.25
2023-02-18T20:32:43.625Z,131.00
2023-02-18T20:34:16.296Z,137.50
2023-02-18T20:35:55.993Z,132.75
2023-02-18T20:37:28.022Z,127.75
2023-02-18T20:39:10.831Z,117.50
2023-02-18T20:40:47.379Z,129.75
2023-02-18T20:42:19.214Z,121.50
2023-02-18T20:43:51.139Z,128.75
2023-02-18T20:45:23.059Z,105.00
2023-02-18T20:46:54.932Z,122.00
2023-02-18T20:48:27.146Z,129.25
2023-02-18T20:49:59.236Z,119.50
2023-02-18T20:51:31.138Z,117.25
2023-02-18T20:53:02.991Z,137.75
2023-02-18T20:54:34.885Z,150.25
2023-02-18T20:56:07.063Z,124.50
2023-02-18T20:57:38.982Z,109.25
2023-02-18T20:59:14.443Z,117.60
2023-02-18T21:00:46.367Z,104.00
2023-02-18T21:02:18.341Z,111.40
2023-02-18T21:03:50.261Z,109.50
2023-02-18T21:05:22.095Z,116.60
2023-02-18T21:06:54.433Z,107.20
2023-02-18T21:08:27.071Z,107.80
2023-02-18T21:09:59.057Z,98.20
2023-02-18T21:11:31.301Z,104.40
2023-02-18T21:13:03.473Z,98.00
2023-02-18T21:14:35.389Z,110.60
2023-02-18T21:16:07.816Z,102.40
2023-02-18T21:17:39.668Z,112.60
2023-02-18T21:19:13.590Z,107.80
2023-02-18T21:20:45.570Z,89.20
2023-02-18T21:22:17.494Z,108.80
2023-02-18T21:23:49.549Z,106.00
2023-02-18T21:25:21.452Z,102.00
2023-02-18T21:26:53.954Z,104.40
2023-02-18T21:28:26.013Z,104.20
2023-02-18T21:29:59.451Z,104.60
2023-02-18T21:31:33.606Z,115.80
2023-02-18T21:33:05.777Z,121.50
2023-02-18T21:34:37.793Z,105.75
2023-02-18T21:36:09.710Z,104.80
2023-02-18T21:37:41.570Z,119.40
2023-02-18T21:39:13.467Z,110.00
2023-02-18T21:40:45.490Z,139.50
2023-02-18T21:42:17.369Z,107.80
2023-02-18T21:43:49.358Z,113.50
2023-02-18T21:45:21.550Z,97.00
2023-02-18T21:46:53.540Z,111.00
2023-02-18T21:48:43.868Z,110.00
2023-02-18T21:50:15.879Z,114.00
2023-02-18T21:51:57.798Z,109.75
2023-02-18T21:53:30.196Z,103.60
2023-02-18T21:55:02.099Z,112.60
2023-02-18T21:56:34.005Z,107.80
2023-02-18T21:58:05.936Z,108.60
2023-02-18T21:59:37.852Z,123.50
2023-02-18T22:01:10.193Z,114.00
2023-02-18T22:02:42.260Z,115.25
2023-02-18T22:04:14.266Z,101.75
2023-02-18T22:05:46.116Z,122.50
2023-02-18T22:07:18.893Z,107.25
2023-02-18T22:08:50.856Z,101.20
2023-02-18T22:10:22.796Z,105.00
2023-02-18T22:11:54.676Z,105.40
2023-02-18T22:13:26.553Z,111.25
2023-02-18T22:14:58.413Z,107.80
2023-02-18T22:16:30.356Z,87.60
2023-02-18T22:18:02.166Z,110.80
2023-02-18T22:19:34.178Z,106.20
2023-02-18T22:21:08.130Z,112.20
2023-02-18T22:22:40.446Z,103.25
2023-02-18T22:24:13.175Z,96.00
2023-02-18T22:25:45.143Z,94.75
2023-02-18T22:27:16.932Z,99.00
2023-02-18T22:28:55.397Z,93.50
2023-02-18T22:30:27.333Z,89.40
2023-02-18T22:31:59.602Z,98.00
2023-02-18T22:33:31.578Z,85.60
2023-02-18T22:35:03.528Z,89.75
2023-02-18T22:36:35.543Z,85.50
2023-02-18T22:38:07.400Z,82.00
2023-02-18T22:39:39.225Z,81.00
2023-02-18T22:41:12.246Z,84.25
2023-02-18T22:42:44.416Z,80.75
2023-02-18T22:44:16.816Z,77.25
2023-02-18T22:45:48.756Z,77.50
2023-02-18T22:47:20.601Z,75.00
2023-02-18T22:48:54.725Z,75.50
2023-02-18T22:50:26.574Z,74.25
2023-02-18T22:51:58.606Z,78.50
2023-02-18T22:53:30.600Z,75.75
2023-02-18T22:55:02.563Z,73.25
2023-02-18T22:56:34.431Z,75.75
2023-02-18T22:58:06.357Z,80.50
2023-02-18T22:59:38.298Z,79.75
2023-02-18T23:01:29.359Z,75.25
2023-02-18T23:03:01.199Z,77.25
2023-02-18T23:04:33.036Z,74.75
2023-02-18T23:06:05.877Z,74.50
2023-02-18T23:07:38.651Z,74.75
2023-02-18T23:09:22.204Z,73.25
2023-02-18T23:11:20.448Z,73.75
2023-02-18T23:12:52.324Z,75.00
2023-02-18T23:14:24.908Z,74.50
2023-02-18T23:16:04.363Z,73.00
2023-02-18T23:17:36.307Z,71.25
2023-02-18T23:19:08.152Z,70.00
2023-02-18T23:20:58.409Z,70.75
2023-02-18T23:22:33.664Z,72.50
2023-02-18T23:24:05.930Z,64.00
2023-02-18T23:25:37.779Z,71.00
2023-02-18T23:27:10.402Z,63.00
2023-02-18T23:28:48.277Z,59.50
2023-02-18T23:30:20.170Z,63.00
2023-02-18T23:31:52.184Z,64.25
2023-02-18T23:33:24.031Z,65.00
2023-02-18T23:34:55.905Z,64.75
